Time,TemperatureF,DewpointF,PressureIn,WindDirection,WindDirectionDegrees,WindSpeedMPH,WindSpeedGustMPH,Humidity,HourlyPrecipIn,Conditions,Clouds,dailyrainin,SoftwareType,DateUTC
2013-09-04 00:03:00,69.8,66.1,29.76,NNE,22,0.0,-999.0,88,-99.99,,,0.00,Acu-Link.com,2013-09-04 04:03:00,
2013-09-04 00:26:00,68.0,64.6,29.77,NNE,22,1.1,-999.0,89,-99.99,,,0.00,Acu-Link.com,2013-09-04 04:26:00,
2013-09-04 00:41:00,68.0,64.6,29.77,NNE,22,0.0,-999.0,89,-99.99,,,0.00,Acu-Link.com,2013-09-04 04:41:00,
2013-09-04 00:56:00,68.0,64.6,29.77,NNE,22,2.0,-999.0,89,-99.99,,,0.00,Acu-Link.com,2013-09-04 04:56:00,
2013-09-04 01:11:00,68.0,64.3,29.77,NNE,22,0.0,-999.0,88,-99.99,,,0.00,Acu-Link.com,2013-09-04 05:11:00,
2013-09-04 01:26:00,68.0,64.0,29.77,NNE,22,0.0,-999.0,87,-99.99,,,0.00,Acu-Link.com,2013-09-04 05:26:00,
2013-09-04 01:42:00,68.0,64.0,29.77,North,0,0.0,-999.0,87,-99.99,,,0.00,Acu-Link.com,2013-09-04 05:42:00,
2013-09-04 01:57:00,68.0,64.0,29.77,North,0,2.0,-999.0,87,-99.99,,,0.00,Acu-Link.com,2013-09-04 05:57:00,
2013-09-04 02:12:00,68.0,63.6,29.77,ESE,112,2.0,-999.0,86,-99.99,,,0.00,Acu-Link.com,2013-09-04 06:12:00,
2013-09-04 02:28:00,68.0,62.6,29.77,NNE,22,0.0,-999.0,83,-99.99,,,0.00,Acu-Link.com,2013-09-04 06:28:00,
2013-09-04 02:43:00,68.0,62.6,29.77,ENE,67,0.0,-999.0,83,-99.99,,,0.00,Acu-Link.com,2013-09-04 06:43:00,
2013-09-04 02:58:00,68.0,62.6,29.78,North,0,0.0,-999.0,83,-99.99,,,0.00,Acu-Link.com,2013-09-04 06:58:00,
2013-09-04 03:14:00,66.2,61.2,29.77,NE,45,0.0,-999.0,84,-99.99,,,0.00,Acu-Link.com,2013-09-04 07:14:00,
2013-09-04 03:29:00,64.4,59.8,29.77,NNE,22,1.6,-999.0,85,-99.99,,,0.00,Acu-Link.com,2013-09-04 07:29:00,
2013-09-04 03:44:00,64.4,60.1,29.77,NNE,22,0.0,-999.0,86,-99.99,,,0.00,Acu-Link.com,2013-09-04 07:44:00,
2013-09-04 03:59:00,64.4,60.1,29.78,NNE,22,0.0,-999.0,86,-99.99,,,0.00,Acu-Link.com,2013-09-04 07:59:00,
2013-09-04 04:15:00,64.4,60.1,29.78,NNE,22,0.0,-999.0,86,-99.99,,,0.00,Acu-Link.com,2013-09-04 08:15:00,
2013-09-04 04:30:00,64.4,60.4,29.78,NNE,22,0.0,-999.0,87,-99.99,,,0.00,Acu-Link.com,2013-09-04 08:30:00,
2013-09-04 04:45:00,64.4,60.4,29.78,NNE,22,0.0,-999.0,87,-99.99,,,0.00,Acu-Link.com,2013-09-04 08:45:00,
2013-09-04 05:00:00,64.4,60.8,29.78,NNE,22,0.0,-999.0,88,-99.99,,,0.00,Acu-Link.com,2013-09-04 09:00:00,
2013-09-04 05:15:00,62.6,59.3,29.78,NNW,337,0.0,-999.0,89,-99.99,,,0.00,Acu-Link.com,2013-09-04 09:15:00,
2013-09-04 05:31:00,62.6,59.3,29.78,North,0,0.0,-999.0,89,-99.99,,,0.00,Acu-Link.com,2013-09-04 09:31:00,
2013-09-04 05:46:00,62.6,59.3,29.80,East,90,0.0,-999.0,89,-99.99,,,0.00,Acu-Link.com,2013-09-04 09:46:00,
2013-09-04 06:01:00,62.6,59.3,29.80,North,0,0.0,-999.0,89,-99.99,,,0.00,Acu-Link.com,2013-09-04 10:01:00,
2013-09-04 06:16:00,62.6,59.3,29.81,North,0,0.0,-999.0,89,-99.99,,,0.00,Acu-Link.com,2013-09-04 10:16:00,
2013-09-04 06:31:00,62.6,59.3,29.81,West,270,0.0,-999.0,89,-99.99,,,0.00,Acu-Link.com,2013-09-04 10:31:00,
2013-09-04 06:47:00,62.6,59.3,29.83,West,270,0.0,-999.0,89,-99.99,,,0.00,Acu-Link.com,2013-09-04 10:47:00,
2013-09-04 07:02:00,62.6,59.0,29.83,NNE,22,1.6,-999.0,88,-99.99,,,0.00,Acu-Link.com,2013-09-04 11:02:00,
2013-09-04 07:17:00,62.6,58.7,29.83,NNW,337,0.0,-999.0,87,-99.99,,,0.00,Acu-Link.com,2013-09-04 11:17:00,
2013-09-04 07:33:00,64.4,60.4,29.84,NNE,22,0.0,-999.0,87,-99.99,,,0.00,Acu-Link.com,2013-09-04 11:33:00,
2013-09-04 07:48:00,64.4,60.1,29.84,North,0,0.0,-999.0,86,-99.99,,,0.00,Acu-Link.com,2013-09-04 11:48:00,
2013-09-04 08:03:00,64.4,59.8,29.85,North,0,2.0,-999.0,85,-99.99,,,0.00,Acu-Link.com,2013-09-04 12:03:00,
2013-09-04 08:18:00,68.0,62.3,29.85,NNE,22,0.0,-999.0,82,-99.99,,,0.00,Acu-Link.com,2013-09-04 12:18:00,
2013-09-04 08:34:00,69.8,62.6,29.85,NNE,22,2.0,-999.0,78,-99.99,,,0.00,Acu-Link.com,2013-09-04 12:34:00,
2013-09-04 08:49:00,71.6,62.1,29.86,WNW,292,1.6,-999.0,72,-99.99,,,0.00,Acu-Link.com,2013-09-04 12:49:00,
2013-09-04 09:04:00,73.4,62.2,29.87,South,180,2.0,-999.0,68,-99.99,,,0.00,Acu-Link.com,2013-09-04 13:04:00,
2013-09-04 09:20:00,77.0,61.6,29.87,West,270,2.0,-999.0,59,-99.99,,,0.00,Acu-Link.com,2013-09-04 13:20:00,
2013-09-04 09:35:00,80.6,62.4,29.88,North,0,2.7,-999.0,54,-99.99,,,0.00,Acu-Link.com,2013-09-04 13:35:00,
2013-09-04 09:50:00,82.4,62.4,29.88,SE,135,3.1,-999.0,51,-99.99,,,0.00,Acu-Link.com,2013-09-04 13:50:00,
2013-09-04 10:05:00,84.2,62.4,29.88,NW,315,4.0,-999.0,48,-99.99,,,0.00,Acu-Link.com,2013-09-04 14:05:00,
2013-09-04 10:20:00,84.2,61.8,29.88,NNW,337,2.7,-999.0,47,-99.99,,,0.00,Acu-Link.com,2013-09-04 14:20:00,
2013-09-04 10:36:00,86.0,63.4,29.88,South,180,3.6,-999.0,47,-99.99,,,0.00,Acu-Link.com,2013-09-04 14:36:00,
2013-09-04 10:51:00,87.8,63.1,29.88,North,0,2.7,-999.0,44,-99.99,,,0.00,Acu-Link.com,2013-09-04 14:51:00,
2013-09-04 11:06:00,87.8,61.1,29.89,ESE,112,5.1,-999.0,41,-99.99,,,0.00,Acu-Link.com,2013-09-04 15:06:00,
2013-09-04 11:21:00,87.8,61.8,29.89,East,90,4.7,-999.0,42,-99.99,,,0.00,Acu-Link.com,2013-09-04 15:21:00,
2013-09-04 11:36:00,89.6,62.7,29.89,SSE,157,1.6,-999.0,41,-99.99,,,0.00,Acu-Link.com,2013-09-04 15:36:00,
2013-09-04 11:52:00,91.4,63.6,29.89,SE,135,1.6,-999.0,40,-99.99,,,0.00,Acu-Link.com,2013-09-04 15:52:00,
2013-09-04 12:07:00,91.4,62.2,29.88,West,270,1.6,-999.0,38,-99.99,,,0.00,Acu-Link.com,2013-09-04 16:07:00,
2013-09-04 12:22:00,91.4,62.9,29.88,ESE,112,5.1,-999.0,39,-99.99,,,0.00,Acu-Link.com,2013-09-04 16:22:00,
2013-09-04 12:37:00,89.6,63.4,29.88,SW,225,2.0,-999.0,42,-99.99,,,0.00,Acu-Link.com,2013-09-04 16:37:00,
2013-09-04 12:53:00,87.8,61.1,29.88,ESE,112,3.6,-999.0,41,-99.99,,,0.00,Acu-Link.com,2013-09-04 16:53:00,
2013-09-04 13:08:00,89.6,64.8,29.88,SSE,157,1.6,-999.0,44,-99.99,,,0.00,Acu-Link.com,2013-09-04 17:08:00,
2013-09-04 13:23:00,93.2,62.2,29.88,South,180,2.7,-999.0,36,-99.99,,,0.00,Acu-Link.com,2013-09-04 17:23:00,
2013-09-04 13:39:00,93.2,63.8,29.88,SE,135,4.0,-999.0,38,-99.99,,,0.00,Acu-Link.com,2013-09-04 17:39:00,
2013-09-04 13:54:00,96.8,65.4,29.87,NNE,22,3.6,-999.0,36,-99.99,,,0.00,Acu-Link.com,2013-09-04 17:54:00,
2013-09-04 14:09:00,95.0,63.8,29.87,South,180,2.7,-999.0,36,-99.99,,,0.00,Acu-Link.com,2013-09-04 18:09:00,
2013-09-04 14:24:00,96.8,61.1,29.87,SSW,202,2.0,-999.0,31,-99.99,,,0.00,Acu-Link.com,2013-09-04 18:24:00,
2013-09-04 14:39:00,93.2,63.0,29.86,West,270,1.1,-999.0,37,-99.99,,,0.00,Acu-Link.com,2013-09-04 18:39:00,
2013-09-04 14:55:00,87.8,60.4,29.86,South,180,3.6,-999.0,40,-99.99,,,0.00,Acu-Link.com,2013-09-04 18:55:00,
2013-09-04 15:10:00,87.8,63.1,29.86,South,180,2.7,-999.0,44,-99.99,,,0.00,Acu-Link.com,2013-09-04 19:10:00,
2013-09-04 15:25:00,87.8,61.8,29.85,South,180,3.6,-999.0,42,-99.99,,,0.00,Acu-Link.com,2013-09-04 19:25:00,
2013-09-04 15:40:00,91.4,63.6,29.85,West,270,1.6,-999.0,40,-99.99,,,0.00,Acu-Link.com,2013-09-04 19:40:00,
2013-09-04 15:56:00,89.6,62.0,29.84,South,180,4.7,-999.0,40,-99.99,,,0.00,Acu-Link.com,2013-09-04 19:56:00,
2013-09-04 16:11:00,87.8,62.5,29.85,South,180,3.6,-999.0,43,-99.99,,,0.00,Acu-Link.com,2013-09-04 20:11:00,
2013-09-04 16:26:00,87.8,62.5,29.84,SSE,157,3.6,-999.0,43,-99.99,,,0.00,Acu-Link.com,2013-09-04 20:26:00,
2013-09-04 16:41:00,96.8,65.4,29.84,NNW,337,1.6,-999.0,36,-99.99,,,0.00,Acu-Link.com,2013-09-04 20:41:00,
2013-09-04 16:57:00,93.2,63.0,29.84,SSW,202,2.0,-999.0,37,-99.99,,,0.00,Acu-Link.com,2013-09-04 20:57:00,
2013-09-04 17:12:00,95.0,64.6,29.83,WNW,292,0.0,-999.0,37,-99.99,,,0.00,Acu-Link.com,2013-09-04 21:12:00,
2013-09-04 17:27:00,96.8,64.6,29.83,West,270,0.0,-999.0,35,-99.99,,,0.00,Acu-Link.com,2013-09-04 21:27:00,
2013-09-04 17:42:00,95.0,64.6,29.83,North,0,1.6,-999.0,37,-99.99,,,0.00,Acu-Link.com,2013-09-04 21:42:00,
2013-09-04 17:58:00,89.6,64.1,29.83,North,0,0.0,-999.0,43,-99.99,,,0.00,Acu-Link.com,2013-09-04 21:58:00,
2013-09-04 18:13:00,86.0,64.6,29.83,NNE,22,1.6,-999.0,49,-99.99,,,0.00,Acu-Link.com,2013-09-04 22:13:00,
2013-09-04 18:28:00,82.4,63.5,29.83,NNE,22,0.0,-999.0,53,-99.99,,,0.00,Acu-Link.com,2013-09-04 22:28:00,
2013-09-04 18:43:00,80.6,63.9,29.83,NNE,22,0.0,-999.0,57,-99.99,,,0.00,Acu-Link.com,2013-09-04 22:43:00,
2013-09-04 18:59:00,78.8,64.2,29.83,NNE,22,0.0,-999.0,61,-99.99,,,0.00,Acu-Link.com,2013-09-04 22:59:00,
2013-09-04 19:14:00,78.8,65.1,29.83,NNE,22,0.0,-999.0,63,-99.99,,,0.00,Acu-Link.com,2013-09-04 23:14:00,
2013-09-04 19:29:00,77.0,64.8,29.83,NNE,22,0.0,-999.0,66,-99.99,,,0.00,Acu-Link.com,2013-09-04 23:29:00,
2013-09-04 19:45:00,75.2,63.9,29.83,NNE,22,0.0,-999.0,68,-99.99,,,0.00,Acu-Link.com,2013-09-04 23:45:00,
2013-09-04 20:00:00,73.4,63.0,29.83,NNE,22,0.0,-999.0,70,-99.99,,,0.00,Acu-Link.com,2013-09-05 00:00:00,
2013-09-04 20:15:00,71.6,62.1,29.84,NNE,22,0.0,-999.0,72,-99.99,,,0.00,Acu-Link.com,2013-09-05 00:15:00,
2013-09-04 20:30:00,71.6,63.2,29.84,NNE,22,0.0,-999.0,75,-99.99,,,0.00,Acu-Link.com,2013-09-05 00:30:00,
2013-09-04 20:45:00,69.8,62.6,29.85,NNE,22,0.0,-999.0,78,-99.99,,,0.00,Acu-Link.com,2013-09-05 00:45:00,
2013-09-04 21:01:00,69.8,63.0,29.85,NNE,22,0.0,-999.0,79,-99.99,,,0.00,Acu-Link.com,2013-09-05 01:01:00,
2013-09-04 21:16:00,69.8,64.0,29.86,NNE,22,0.0,-999.0,82,-99.99,,,0.00,Acu-Link.com,2013-09-05 01:16:00,
2013-09-04 21:31:00,69.8,64.4,29.86,NNE,22,0.0,-999.0,83,-99.99,,,0.00,Acu-Link.com,2013-09-05 01:31:00,
2013-09-04 21:46:00,68.0,62.6,29.86,NNE,22,0.0,-999.0,83,-99.99,,,0.00,Acu-Link.com,2013-09-05 01:46:00,
2013-09-04 22:01:00,68.0,62.6,29.87,NNE,22,0.0,-999.0,83,-99.99,,,0.00,Acu-Link.com,2013-09-05 02:01:00,
2013-09-04 22:17:00,68.0,63.3,29.87,NNE,22,0.0,-999.0,85,-99.99,,,0.00,Acu-Link.com,2013-09-05 02:17:00,
2013-09-04 22:32:00,68.0,63.3,29.87,NNE,22,0.0,-999.0,85,-99.99,,,0.00,Acu-Link.com,2013-09-05 02:32:00,
2013-09-04 22:47:00,68.0,63.6,29.88,NNE,22,0.0,-999.0,86,-99.99,,,0.00,Acu-Link.com,2013-09-05 02:47:00,
2013-09-04 23:02:00,68.0,64.0,29.88,NNE,22,0.0,-999.0,87,-99.99,,,0.00,Acu-Link.com,2013-09-05 03:02:00,
2013-09-04 23:17:00,68.0,64.0,29.88,NNE,22,0.0,-999.0,87,-99.99,,,0.00,Acu-Link.com,2013-09-05 03:17:00,
2013-09-04 23:32:00,66.2,62.5,29.89,NNE,22,0.0,-999.0,88,-99.99,,,0.00,Acu-Link.com,2013-09-05 03:32:00,
2013-09-04 23:47:00,66.2,62.5,29.89,NNE,22,0.0,-999.0,88,-99.99,,,0.00,Acu-Link.com,2013-09-05 03:47:00,